createdAt,value
2022-11-06T00:00:16.725Z,15.71
2022-11-06T00:02:20.855Z,15.71
2022-11-06T00:04:23.215Z,15.75
2022-11-06T00:06:44.626Z,15.62
2022-11-06T00:08:47.123Z,15.67
2022-11-06T00:10:49.611Z,15.61
2022-11-06T00:12:51.637Z,15.52
2022-11-06T00:14:53.864Z,15.48
2022-11-06T00:16:55.992Z,15.41
2022-11-06T00:19:23.307Z,15.36
2022-11-06T00:21:27.639Z,15.41
2022-11-06T00:23:29.575Z,15.42
2022-11-06T00:25:31.564Z,15.40
2022-11-06T00:27:37.499Z,15.39
2022-11-06T00:29:39.524Z,15.42
2022-11-06T00:31:42.222Z,15.37
2022-11-06T00:33:44.814Z,15.35
2022-11-06T00:35:46.843Z,15.36
2022-11-06T00:37:48.880Z,15.29
2022-11-06T00:39:50.927Z,15.25
2022-11-06T00:41:52.844Z,15.24
2022-11-06T00:44:03.873Z,15.25
2022-11-06T00:46:08.239Z,15.33
2022-11-06T00:48:10.463Z,15.33
2022-11-06T00:50:12.647Z,15.39
2022-11-06T00:52:15.011Z,15.41
2022-11-06T00:54:16.954Z,15.42
2022-11-06T00:56:20.067Z,15.43
2022-11-06T00:58:22.183Z,15.45
2022-11-06T01:00:24.426Z,15.42
2022-11-06T01:02:26.713Z,15.42
2022-11-06T01:04:29.686Z,15.28
2022-11-06T01:06:34.894Z,15.29
2022-11-06T01:08:38.037Z,15.24
2022-11-06T01:10:40.017Z,15.23
2022-11-06T01:12:42.201Z,15.21
2022-11-06T01:14:44.869Z,15.19
2022-11-06T01:16:47.888Z,15.20
2022-11-06T01:18:50.169Z,15.07
2022-11-06T01:20:52.252Z,15.11
2022-11-06T01:22:54.355Z,15.05
2022-11-06T01:24:56.644Z,15.03
2022-11-06T01:27:25.518Z,15.04
2022-11-06T01:29:20.937Z,14.93
2022-11-06T01:31:27.398Z,14.94
2022-11-06T01:33:29.588Z,14.93
2022-11-06T01:35:31.687Z,14.91
2022-11-06T01:37:34.165Z,14.90
2022-11-06T01:39:36.166Z,14.87
2022-11-06T01:41:50.631Z,14.81
2022-11-06T01:44:02.750Z,14.78
2022-11-06T01:46:05.188Z,14.78
2022-11-06T01:48:07.314Z,14.76
2022-11-06T01:50:11.922Z,14.73
2022-11-06T01:52:15.423Z,14.73
2022-11-06T01:54:18.261Z,14.65
2022-11-06T01:56:22.309Z,14.64
2022-11-06T01:58:26.828Z,14.59
2022-11-06T02:00:31.243Z,14.56
2022-11-06T02:02:33.546Z,14.55
2022-11-06T02:04:43.115Z,14.44
2022-11-06T02:06:47.190Z,14.51
2022-11-06T02:08:49.416Z,14.54
2022-11-06T02:10:53.031Z,14.49
2022-11-06T02:13:03.772Z,14.44
2022-11-06T02:15:18.609Z,14.43
2022-11-06T02:17:45.272Z,14.30
2022-11-06T02:20:12.195Z,14.16
2022-11-06T02:23:10.092Z,14.11
2022-11-06T02:25:41.170Z,14.03
2022-11-06T02:28:11.304Z,13.93
2022-11-06T02:30:16.470Z,13.80
2022-11-06T02:32:35.899Z,13.66
2022-11-06T02:34:40.472Z,13.65
2022-11-06T02:37:05.193Z,13.59
2022-11-06T02:39:15.923Z,13.59
2022-11-06T02:41:25.258Z,13.64
2022-11-06T02:43:33.466Z,13.73
2022-11-06T02:46:04.322Z,13.79
2022-11-06T02:48:10.975Z,13.91
2022-11-06T02:50:25.854Z,13.92
2022-11-06T02:52:55.769Z,13.95
2022-11-06T02:55:07.783Z,14.02
2022-11-06T02:57:15.869Z,14.06
2022-11-06T02:59:17.819Z,14.09
2022-11-06T03:01:40.330Z,14.01
2022-11-06T03:03:48.434Z,14.07
2022-11-06T03:05:59.187Z,14.01
2022-11-06T03:08:42.141Z,13.99
2022-11-06T03:10:51.070Z,14.06
2022-11-06T03:13:10.535Z,14.07
2022-11-06T03:15:43.660Z,13.95
2022-11-06T03:18:02.237Z,13.95
2022-11-06T03:20:11.862Z,13.83
2022-11-06T03:22:38.494Z,13.87
2022-11-06T03:25:00.405Z,13.92
2022-11-06T03:27:12.495Z,13.92
2022-11-06T03:29:25.148Z,13.90
2022-11-06T03:31:44.025Z,13.83
2022-11-06T03:34:09.159Z,13.74
2022-11-06T03:36:40.008Z,13.71
2022-11-06T03:38:47.676Z,13.78
2022-11-06T03:40:59.786Z,13.73
2022-11-06T03:43:06.789Z,13.84
2022-11-06T03:45:15.280Z,13.88
2022-11-06T03:47:31.771Z,13.83
2022-11-06T03:49:40.879Z,13.86
2022-11-06T03:51:49.242Z,13.94
2022-11-06T03:53:59.815Z,13.87
2022-11-06T03:56:15.144Z,13.94
2022-11-06T03:58:21.643Z,13.99
2022-11-06T04:00:23.780Z,14.04
2022-11-06T04:02:30.115Z,14.03
2022-11-06T04:04:37.536Z,13.98
2022-11-06T04:07:08.280Z,13.92
2022-11-06T04:09:32.451Z,13.89
2022-11-06T04:11:55.867Z,13.95
2022-11-06T04:14:02.958Z,13.92
2022-11-06T04:16:06.946Z,13.99
2022-11-06T04:18:14.619Z,14.03
2022-11-06T04:20:39.934Z,14.05
2022-11-06T04:22:51.391Z,13.92
2022-11-06T04:25:24.167Z,14.01
2022-11-06T04:27:54.185Z,14.02
2022-11-06T04:30:02.035Z,14.12
2022-11-06T04:32:28.329Z,14.14
2022-11-06T04:34:56.777Z,14.03
2022-11-06T04:37:12.448Z,14.00
2022-11-06T04:39:34.713Z,13.93
2022-11-06T04:41:51.595Z,14.09
2022-11-06T04:43:58.941Z,14.09
2022-11-06T04:46:02.623Z,14.13
2022-11-06T04:48:06.538Z,14.14
2022-11-06T04:50:12.036Z,14.12
2022-11-06T04:52:20.047Z,14.06
2022-11-06T04:54:22.702Z,14.15
2022-11-06T04:56:34.681Z,14.14
2022-11-06T04:58:37.325Z,14.18
2022-11-06T05:00:45.116Z,14.13
2022-11-06T05:02:47.471Z,14.16
2022-11-06T05:04:49.819Z,14.19
2022-11-06T05:06:51.804Z,14.17
2022-11-06T05:08:53.760Z,14.12
2022-11-06T05:10:55.675Z,14.18
2022-11-06T05:12:57.783Z,14.22
2022-11-06T05:14:59.962Z,14.23
2022-11-06T05:17:02.108Z,14.17
2022-11-06T05:19:04.876Z,14.19
2022-11-06T05:21:27.319Z,14.16
2022-11-06T05:23:29.409Z,14.19
2022-11-06T05:25:34.709Z,14.26
2022-11-06T05:27:37.216Z,14.26
2022-11-06T05:29:39.403Z,14.24
2022-11-06T05:31:41.574Z,14.26
2022-11-06T05:33:46.673Z,14.28
2022-11-06T05:35:48.730Z,14.28
2022-11-06T05:37:51.098Z,14.26
2022-11-06T05:39:53.074Z,14.25
2022-11-06T05:41:54.984Z,14.32
2022-11-06T05:43:57.776Z,14.35
2022-11-06T05:46:00.686Z,14.33
2022-11-06T05:48:03.164Z,14.32
2022-11-06T05:50:05.554Z,14.35
2022-11-06T05:52:07.768Z,14.42
2022-11-06T05:54:09.915Z,14.40
2022-11-06T05:56:12.127Z,14.38
2022-11-06T05:58:15.437Z,14.38
2022-11-06T06:00:18.040Z,14.32
2022-11-06T06:02:20.247Z,14.32
2022-11-06T06:04:22.351Z,14.32
2022-11-06T06:06:24.509Z,14.35
2022-11-06T06:08:26.911Z,14.37
2022-11-06T06:10:29.036Z,14.37
2022-11-06T06:12:31.217Z,14.35
2022-11-06T06:14:33.239Z,14.40
2022-11-06T06:16:35.296Z,14.44
2022-11-06T06:18:37.872Z,14.38
2022-11-06T06:20:39.933Z,14.35
2022-11-06T06:22:41.998Z,14.36
2022-11-06T06:24:44.060Z,14.36
2022-11-06T06:26:46.346Z,14.35
2022-11-06T06:28:52.085Z,14.35
2022-11-06T06:30:58.689Z,14.37
2022-11-06T06:33:05.875Z,14.38
2022-11-06T06:35:08.223Z,14.34
2022-11-06T06:37:14.367Z,14.34
2022-11-06T06:39:21.842Z,14.32
2022-11-06T06:41:25.900Z,14.24
2022-11-06T06:43:28.255Z,14.31
2022-11-06T06:45:30.284Z,14.29
2022-11-06T06:47:32.392Z,14.23
2022-11-06T06:49:35.898Z,14.24
2022-11-06T06:51:38.169Z,14.29
2022-11-06T06:53:40.312Z,14.41
2022-11-06T06:55:45.089Z,14.45
2022-11-06T06:57:47.375Z,14.50
2022-11-06T06:59:49.227Z,14.53
2022-11-06T07:01:51.309Z,14.54
2022-11-06T07:03:53.404Z,14.58
2022-11-06T07:05:55.511Z,14.57
2022-11-06T07:07:57.838Z,14.56
2022-11-06T07:09:59.721Z,14.56
2022-11-06T07:12:01.938Z,14.57
2022-11-06T07:14:04.048Z,14.57
2022-11-06T07:16:07.910Z,14.53
2022-11-06T07:18:10.167Z,14.56
2022-11-06T07:20:12.377Z,14.57
2022-11-06T07:22:14.440Z,14.64
2022-11-06T07:24:18.278Z,14.65
2022-11-06T07:26:20.219Z,14.65
2022-11-06T07:28:22.258Z,14.70
2022-11-06T07:30:24.387Z,14.73
2022-11-06T07:32:26.959Z,14.74
2022-11-06T07:34:28.843Z,14.79
2022-11-06T07:36:32.924Z,14.81
2022-11-06T07:38:36.248Z,14.83
2022-11-06T07:40:40.781Z,14.80
2022-11-06T07:42:43.826Z,14.83
2022-11-06T07:44:54.494Z,14.89
2022-11-06T07:46:56.383Z,14.87
2022-11-06T07:48:58.548Z,14.84
2022-11-06T07:51:05.675Z,14.81
2022-11-06T07:53:08.111Z,14.90
2022-11-06T07:55:10.145Z,14.92
2022-11-06T07:57:12.201Z,14.95
2022-11-06T07:59:14.352Z,14.98
2022-11-06T08:01:20.791Z,15.01
2022-11-06T08:03:24.263Z,15.02
2022-11-06T08:05:26.474Z,15.02
2022-11-06T08:07:28.737Z,15.01
2022-11-06T08:09:31.076Z,15.02
2022-11-06T08:11:32.973Z,15.06
2022-11-06T08:13:35.679Z,15.05
2022-11-06T08:15:38.677Z,15.07
2022-11-06T08:17:40.938Z,15.11
2022-11-06T08:19:42.843Z,15.11
2022-11-06T08:21:44.937Z,15.11
2022-11-06T08:23:46.969Z,15.15
2022-11-06T08:25:49.377Z,15.13
2022-11-06T08:27:54.356Z,15.16
2022-11-06T08:29:56.480Z,15.21
2022-11-06T08:31:58.771Z,15.18
2022-11-06T08:34:00.778Z,15.20
2022-11-06T08:36:03.803Z,15.23
2022-11-06T08:38:05.865Z,15.22
2022-11-06T08:40:08.751Z,15.32
2022-11-06T08:42:10.846Z,15.36
2022-11-06T08:44:12.895Z,15.39
2022-11-06T08:46:15.425Z,15.35
2022-11-06T08:48:17.484Z,15.35
2022-11-06T08:50:19.549Z,15.33
2022-11-06T08:52:22.297Z,15.37
2022-11-06T08:54:24.426Z,15.37
2022-11-06T08:56:26.349Z,15.36
2022-11-06T08:58:28.959Z,15.39
2022-11-06T09:00:31.414Z,15.49
2022-11-06T09:02:33.745Z,15.53
2022-11-06T09:04:41.007Z,15.54
2022-11-06T09:06:43.476Z,15.53
2022-11-06T09:08:45.599Z,15.54
2022-11-06T09:10:47.752Z,15.58
2022-11-06T09:12:49.769Z,15.59
2022-11-06T09:14:51.975Z,15.60
2022-11-06T09:16:54.751Z,15.61
2022-11-06T09:18:57.132Z,15.57
2022-11-06T09:20:59.406Z,15.64
2022-11-06T09:23:03.522Z,15.58
2022-11-06T09:25:06.223Z,15.61
2022-11-06T09:27:08.515Z,15.65
2022-11-06T09:29:10.604Z,15.67
2022-11-06T09:31:12.716Z,15.66
2022-11-06T09:33:15.229Z,15.72
2022-11-06T09:35:18.351Z,15.74
2022-11-06T09:37:20.399Z,15.74
2022-11-06T09:39:22.299Z,15.76
2022-11-06T09:41:36.304Z,15.68
2022-11-06T09:44:05.078Z,15.68
2022-11-06T09:46:34.554Z,15.65
2022-11-06T09:48:43.949Z,15.75
2022-11-06T09:51:09.119Z,15.68
2022-11-06T09:53:20.508Z,15.73
2022-11-06T09:55:29.530Z,15.71
2022-11-06T09:57:44.055Z,15.73
2022-11-06T09:59:48.022Z,15.73
2022-11-06T10:02:40.682Z,15.70
2022-11-06T10:04:51.751Z,15.75
2022-11-06T10:06:53.807Z,15.81
2022-11-06T10:09:01.157Z,15.85
2022-11-06T10:11:14.388Z,15.83
2022-11-06T10:13:17.729Z,15.80
2022-11-06T10:15:28.574Z,15.78
2022-11-06T10:17:39.472Z,15.88
2022-11-06T10:19:52.497Z,15.96
2022-11-06T10:22:03.411Z,16.06
2022-11-06T10:24:46.664Z,16.14
2022-11-06T10:26:58.643Z,16.15
2022-11-06T10:29:12.993Z,16.08
2022-11-06T10:31:37.155Z,16.13
2022-11-06T10:34:10.402Z,16.14
2022-11-06T10:36:19.862Z,16.23
2022-11-06T10:38:26.390Z,16.31
2022-11-06T10:40:31.966Z,16.31
2022-11-06T10:42:40.604Z,16.30
2022-11-06T10:44:58.214Z,16.35
2022-11-06T10:47:06.798Z,16.47
2022-11-06T10:49:35.852Z,16.42
2022-11-06T10:51:49.453Z,16.49
2022-11-06T10:54:00.493Z,16.52
2022-11-06T10:56:21.291Z,16.43
2022-11-06T10:58:29.421Z,16.55
2022-11-06T11:00:32.551Z,16.63
2022-11-06T11:02:37.770Z,16.67
2022-11-06T11:04:41.148Z,16.75
2022-11-06T11:06:43.100Z,16.83
2022-11-06T11:08:52.147Z,16.79
2022-11-06T11:11:05.258Z,16.81
2022-11-06T11:13:21.147Z,16.83
2022-11-06T11:15:25.704Z,16.91
2022-11-06T11:17:27.690Z,16.94
2022-11-06T11:19:42.013Z,16.88
2022-11-06T11:22:19.386Z,16.91
2022-11-06T11:24:21.592Z,16.91
2022-11-06T11:26:27.804Z,16.93
2022-11-06T11:28:37.367Z,16.91
2022-11-06T11:30:39.806Z,16.96
2022-11-06T11:32:42.181Z,16.96
2022-11-06T11:34:53.886Z,16.92
2022-11-06T11:37:06.330Z,16.90
2022-11-06T11:39:09.135Z,16.96
2022-11-06T11:41:15.439Z,16.96
2022-11-06T11:43:30.205Z,16.95
2022-11-06T11:45:32.415Z,17.02
2022-11-06T11:47:36.038Z,17.03
2022-11-06T11:49:37.884Z,17.03
2022-11-06T11:51:47.490Z,17.06
2022-11-06T11:53:49.939Z,17.09
2022-11-06T11:55:54.821Z,17.08
2022-11-06T11:58:00.512Z,17.07
2022-11-06T12:00:06.471Z,17.12
2022-11-06T12:02:36.035Z,17.15
2022-11-06T12:04:45.104Z,17.22
2022-11-06T12:07:05.774Z,17.23
2022-11-06T12:09:12.323Z,17.32
2022-11-06T12:11:29.061Z,17.38
2022-11-06T12:13:31.199Z,17.44
2022-11-06T12:15:44.574Z,17.46
2022-11-06T12:17:55.217Z,17.44
2022-11-06T12:20:00.379Z,17.44
2022-11-06T12:22:10.978Z,17.42
2022-11-06T12:24:33.369Z,17.36
2022-11-06T12:26:46.664Z,17.44
2022-11-06T12:29:02.023Z,17.52
2022-11-06T12:31:23.169Z,17.50
2022-11-06T12:34:03.976Z,17.54
2022-11-06T12:35:54.913Z,17.58
2022-11-06T12:38:06.452Z,17.57
2022-11-06T12:40:22.187Z,17.53
2022-11-06T12:42:32.001Z,17.55
2022-11-06T12:44:34.065Z,17.58
2022-11-06T12:46:54.420Z,17.59
2022-11-06T12:49:14.310Z,17.55
2022-11-06T12:51:32.364Z,17.57
2022-11-06T12:54:06.625Z,17.56
2022-11-06T12:56:25.373Z,17.53
2022-11-06T12:58:44.543Z,17.54
2022-11-06T13:01:18.828Z,17.55
2022-11-06T13:03:27.099Z,17.54
2022-11-06T13:06:13.897Z,17.46
2022-11-06T13:08:25.134Z,17.46
2022-11-06T13:10:45.362Z,17.52
2022-11-06T13:13:15.290Z,17.51
2022-11-06T13:15:34.109Z,17.51
2022-11-06T13:17:52.132Z,17.51
2022-11-06T13:20:26.301Z,17.50
2022-11-06T13:22:50.237Z,17.54
2022-11-06T13:25:07.352Z,17.56
2022-11-06T13:27:42.780Z,17.64
2022-11-06T13:29:45.709Z,17.67
2022-11-06T13:31:59.100Z,17.64
2022-11-06T13:34:03.500Z,17.65
2022-11-06T13:36:07.414Z,17.68
2022-11-06T13:38:17.350Z,17.62
2022-11-06T13:40:31.421Z,17.59
2022-11-06T13:42:43.117Z,17.58
2022-11-06T13:44:45.306Z,17.61
2022-11-06T13:47:12.918Z,17.58
2022-11-06T13:49:28.551Z,17.63
2022-11-06T13:51:43.399Z,17.67
2022-11-06T13:54:16.201Z,17.65
2022-11-06T13:56:32.988Z,17.67
2022-11-06T13:58:58.001Z,17.60
2022-11-06T14:01:27.380Z,17.59
2022-11-06T14:03:41.377Z,17.59
2022-11-06T14:05:52.196Z,17.50
2022-11-06T14:07:55.343Z,17.42
2022-11-06T14:09:57.853Z,17.38
2022-11-06T14:12:03.606Z,17.35
2022-11-06T14:14:12.797Z,17.26
2022-11-06T14:16:14.637Z,17.30
2022-11-06T14:18:24.028Z,17.28
2022-11-06T14:20:35.610Z,17.20
2022-11-06T14:22:38.528Z,17.19
2022-11-06T14:24:42.704Z,17.15
2022-11-06T14:26:48.811Z,17.12
2022-11-06T14:28:51.203Z,17.08
2022-11-06T14:33:49.465Z,16.91
2022-11-06T14:35:52.550Z,16.88
2022-11-06T14:38:09.534Z,16.78
2022-11-06T14:40:14.795Z,16.76
2022-11-06T14:42:40.386Z,16.80
2022-11-06T14:45:08.981Z,16.72
2022-11-06T14:47:41.781Z,16.74
2022-11-06T14:49:49.573Z,16.70
2022-11-06T14:52:06.177Z,16.66
2022-11-06T14:54:21.462Z,16.62
2022-11-06T14:56:39.821Z,16.63
2022-11-06T14:58:50.662Z,16.63
2022-11-06T15:00:56.719Z,16.66
2022-11-06T15:02:59.440Z,16.72
2022-11-06T15:05:07.595Z,16.66
2022-11-06T15:07:44.695Z,16.65
2022-11-06T15:09:48.284Z,16.55
2022-11-06T15:11:55.958Z,16.58
2022-11-06T15:14:08.896Z,16.57
2022-11-06T15:16:12.770Z,16.50
2022-11-06T15:18:22.918Z,16.40
2022-11-06T15:20:30.954Z,16.37
2022-11-06T15:22:42.059Z,16.40
2022-11-06T15:25:01.532Z,16.37
2022-11-06T15:27:20.363Z,16.28
2022-11-06T15:29:25.986Z,16.39
2022-11-06T15:31:30.090Z,16.29
2022-11-06T15:33:44.340Z,16.23
2022-11-06T15:35:49.635Z,16.32
2022-11-06T15:38:03.452Z,16.25
2022-11-06T15:40:06.191Z,16.31
2022-11-06T15:42:20.399Z,16.31
2022-11-06T15:44:24.562Z,16.32
2022-11-06T15:46:30.194Z,16.27
2022-11-06T15:48:32.395Z,16.29
2022-11-06T15:50:36.734Z,16.28
2022-11-06T15:52:40.010Z,16.25
2022-11-06T15:54:43.858Z,16.10
2022-11-06T15:56:48.937Z,16.06
2022-11-06T15:59:17.319Z,15.89
2022-11-06T16:01:32.305Z,15.91
2022-11-06T16:03:50.826Z,15.86
2022-11-06T16:05:58.777Z,15.87
2022-11-06T16:08:01.970Z,15.87
2022-11-06T16:10:05.218Z,15.83
2022-11-06T16:12:07.784Z,15.82
2022-11-06T16:14:13.790Z,15.81
2022-11-06T16:16:41.852Z,15.65
2022-11-06T16:18:46.405Z,15.69
2022-11-06T16:20:58.386Z,15.64
2022-11-06T16:23:04.312Z,15.63
2022-11-06T16:25:07.797Z,15.64
2022-11-06T16:27:11.028Z,15.62
2022-11-06T16:29:23.897Z,15.55
2022-11-06T16:31:29.126Z,15.58
2022-11-06T16:33:31.204Z,15.55
2022-11-06T16:35:37.135Z,15.51
2022-11-06T16:37:39.868Z,15.47
2022-11-06T16:39:49.284Z,15.45
2022-11-06T16:41:57.953Z,15.40
2022-11-06T16:44:30.780Z,15.31
2022-11-06T16:47:05.027Z,15.28
2022-11-06T16:49:50.390Z,15.26
2022-11-06T16:51:55.614Z,15.34
2022-11-06T16:54:02.287Z,15.29
2022-11-06T16:56:07.168Z,15.29
2022-11-06T16:58:16.717Z,15.27
2022-11-06T17:00:22.004Z,15.29
2022-11-06T17:02:27.756Z,15.27
2022-11-06T17:04:30.060Z,15.30
2022-11-06T17:06:35.669Z,15.30
2022-11-06T17:08:40.674Z,15.29
2022-11-06T17:10:47.390Z,15.28
2022-11-06T17:12:49.380Z,15.32
2022-11-06T17:14:51.503Z,15.29
2022-11-06T17:16:56.423Z,15.20
2022-11-06T17:18:58.580Z,15.23
2022-11-06T17:21:02.485Z,15.24
2022-11-06T17:23:04.507Z,15.29
2022-11-06T17:25:06.868Z,15.26
2022-11-06T17:28:08.702Z,15.13
2022-11-06T17:30:15.004Z,15.23
2022-11-06T17:33:26.725Z,15.17
2022-11-06T17:35:34.485Z,15.22
2022-11-06T17:37:37.557Z,15.18
2022-11-06T17:39:39.664Z,15.20
2022-11-06T17:41:42.010Z,15.23
2022-11-06T17:43:44.084Z,15.24
2022-11-06T17:45:49.979Z,15.24
2022-11-06T17:47:55.501Z,15.22
2022-11-06T17:49:57.831Z,15.24
2022-11-06T17:52:02.937Z,15.25
2022-11-06T17:54:05.769Z,15.25
2022-11-06T17:56:08.045Z,15.25
2022-11-06T17:58:09.992Z,15.25
2022-11-06T18:00:13.059Z,15.27
2022-11-06T18:02:25.432Z,15.29
2022-11-06T18:04:38.059Z,15.23
2022-11-06T18:06:40.093Z,15.26
2022-11-06T18:08:42.969Z,15.27
2022-11-06T18:10:44.839Z,15.28
2022-11-06T18:12:51.378Z,15.31
2022-11-06T18:14:56.161Z,15.33
2022-11-06T18:16:58.237Z,15.34
2022-11-06T18:19:00.556Z,15.32
2022-11-06T18:21:03.927Z,15.34
2022-11-06T18:23:05.845Z,15.36
2022-11-06T18:25:08.370Z,15.39
2022-11-06T18:27:13.721Z,15.38
2022-11-06T18:29:15.947Z,15.39
2022-11-06T18:31:19.005Z,15.40
2022-11-06T18:33:21.094Z,15.41
2022-11-06T18:35:22.962Z,15.43
2022-11-06T18:37:26.081Z,15.42
2022-11-06T18:39:28.155Z,15.42
2022-11-06T18:41:30.266Z,15.44
2022-11-06T18:43:32.542Z,15.43
2022-11-06T18:45:38.014Z,15.40
2022-11-06T18:47:39.953Z,15.34
2022-11-06T18:49:41.963Z,15.38
2022-11-06T18:51:44.031Z,15.40
2022-11-06T18:53:46.016Z,15.37
2022-11-06T18:55:47.915Z,15.38
2022-11-06T18:57:49.730Z,15.38
2022-11-06T18:59:51.460Z,15.36
2022-11-06T19:01:53.613Z,15.34
2022-11-06T19:03:55.708Z,15.31
2022-11-06T19:05:57.413Z,15.32
2022-11-06T19:08:00.608Z,15.33
2022-11-06T19:10:03.132Z,15.36
2022-11-06T19:12:05.623Z,15.34
2022-11-06T19:14:07.603Z,15.28
2022-11-06T19:16:12.290Z,15.32
2022-11-06T19:18:14.666Z,15.29
2022-11-06T19:20:16.530Z,15.26
2022-11-06T19:22:18.311Z,15.23
2022-11-06T19:24:20.230Z,15.26
2022-11-06T19:26:37.324Z,15.25
2022-11-06T19:28:39.222Z,15.31
2022-11-06T19:30:41.054Z,15.26
2022-11-06T19:32:43.391Z,15.30
2022-11-06T19:34:45.452Z,15.30
2022-11-06T19:36:47.662Z,15.34
2022-11-06T19:38:49.623Z,15.33
2022-11-06T19:41:00.520Z,15.32
2022-11-06T19:43:04.018Z,15.38
2022-11-06T19:45:06.345Z,15.42
2022-11-06T19:47:08.295Z,15.39
2022-11-06T19:49:10.325Z,15.38
2022-11-06T19:51:15.833Z,15.39
2022-11-06T19:53:22.317Z,15.43
2022-11-06T19:55:27.005Z,15.44
2022-11-06T19:57:30.496Z,15.48
2022-11-06T19:59:32.794Z,15.46
2022-11-06T20:01:37.565Z,15.36
2022-11-06T20:03:39.874Z,15.42
2022-11-06T20:05:42.199Z,15.42
2022-11-06T20:07:44.490Z,15.39
2022-11-06T20:09:46.462Z,15.36
2022-11-06T20:11:48.589Z,15.40
2022-11-06T20:13:50.640Z,15.36
2022-11-06T20:15:57.689Z,15.33
2022-11-06T20:17:59.765Z,15.36
2022-11-06T20:20:01.788Z,15.37
2022-11-06T20:22:06.609Z,15.32
2022-11-06T20:24:10.192Z,15.32
2022-11-06T20:26:12.086Z,15.31
2022-11-06T20:28:14.219Z,15.31
2022-11-06T20:30:16.428Z,15.28
2022-11-06T20:32:19.350Z,15.27
2022-11-06T20:34:24.722Z,15.25
2022-11-06T20:36:30.620Z,15.21
2022-11-06T20:38:32.461Z,15.18
2022-11-06T20:40:34.777Z,15.15
2022-11-06T20:42:36.644Z,15.18
2022-11-06T20:44:38.727Z,15.23
2022-11-06T20:46:40.695Z,15.21
2022-11-06T20:48:44.999Z,15.19
2022-11-06T20:51:08.068Z,15.01
2022-11-06T20:53:10.110Z,15.13
2022-11-06T20:55:12.287Z,15.23
2022-11-06T20:57:16.788Z,15.18
2022-11-06T20:59:19.247Z,15.16
2022-11-06T21:01:27.756Z,15.06
2022-11-06T21:03:30.263Z,15.09
2022-11-06T21:05:35.688Z,15.09
2022-11-06T21:07:37.773Z,15.10
2022-11-06T21:09:43.826Z,15.08
2022-11-06T21:11:45.875Z,15.10
2022-11-06T21:13:52.235Z,15.10
2022-11-06T21:16:03.016Z,15.01
2022-11-06T21:18:05.095Z,15.02
2022-11-06T21:20:07.582Z,14.99
2022-11-06T21:22:09.798Z,14.94
2022-11-06T21:24:11.790Z,14.95
2022-11-06T21:26:22.159Z,14.94
2022-11-06T21:28:25.058Z,14.95
2022-11-06T21:30:27.296Z,14.95
2022-11-06T21:32:29.516Z,14.95
2022-11-06T21:34:31.709Z,14.82
2022-11-06T21:36:36.651Z,14.79
2022-11-06T21:38:39.185Z,14.79
2022-11-06T21:40:41.327Z,14.77
2022-11-06T21:42:44.670Z,14.80
2022-11-06T21:44:47.155Z,14.80
2022-11-06T21:46:49.250Z,14.75
2022-11-06T21:48:52.295Z,14.71
2022-11-06T21:50:54.832Z,14.74
2022-11-06T21:53:15.853Z,14.75
2022-11-06T21:55:36.633Z,14.76
2022-11-06T21:57:38.565Z,14.72
2022-11-06T21:59:41.688Z,14.67
2022-11-06T22:01:44.400Z,14.70
2022-11-06T22:03:46.907Z,14.73
2022-11-06T22:05:48.946Z,14.72
2022-11-06T22:07:51.017Z,14.76
2022-11-06T22:09:53.110Z,14.74
2022-11-06T22:11:55.649Z,14.76
2022-11-06T22:14:00.292Z,14.79
2022-11-06T22:16:02.482Z,14.78
2022-11-06T22:18:04.857Z,14.75
2022-11-06T22:20:09.218Z,14.79
2022-11-06T22:22:11.206Z,14.75
2022-11-06T22:24:14.888Z,14.79
2022-11-06T22:26:19.730Z,14.82
2022-11-06T22:28:22.024Z,14.79
2022-11-06T22:30:24.816Z,14.81
2022-11-06T22:32:27.226Z,14.81
2022-11-06T22:34:29.354Z,14.82
2022-11-06T22:36:31.622Z,14.91
2022-11-06T22:38:34.872Z,14.89
2022-11-06T22:40:37.061Z,14.81
2022-11-06T22:42:42.134Z,14.84
2022-11-06T22:44:46.863Z,14.93
2022-11-06T22:46:48.872Z,14.87
2022-11-06T22:48:51.978Z,14.85
2022-11-06T22:50:54.000Z,14.80
2022-11-06T22:52:56.020Z,14.78
2022-11-06T22:54:57.948Z,14.82
2022-11-06T22:56:59.909Z,14.78
2022-11-06T22:59:05.040Z,14.75
2022-11-06T23:01:08.628Z,14.80
2022-11-06T23:03:10.985Z,14.77
2022-11-06T23:05:13.323Z,14.79
2022-11-06T23:07:17.690Z,14.79
2022-11-06T23:09:19.586Z,14.80
2022-11-06T23:11:24.061Z,14.84
2022-11-06T23:13:26.071Z,14.92
2022-11-06T23:15:28.359Z,14.97
2022-11-06T23:17:39.185Z,14.94
2022-11-06T23:19:41.440Z,14.97
2022-11-06T23:21:43.864Z,14.97
2022-11-06T23:23:46.479Z,14.97
2022-11-06T23:25:51.677Z,14.98
2022-11-06T23:27:53.921Z,15.00
2022-11-06T23:30:00.801Z,15.01
2022-11-06T23:32:03.655Z,15.06
2022-11-06T23:34:05.971Z,15.09
2022-11-06T23:36:10.473Z,15.07
2022-11-06T23:38:12.604Z,15.08
2022-11-06T23:40:15.020Z,15.06
2022-11-06T23:42:18.711Z,15.11
2022-11-06T23:44:39.337Z,15.12
2022-11-06T23:46:41.540Z,15.09
2022-11-06T23:48:43.978Z,15.10
2022-11-06T23:50:47.272Z,15.08
2022-11-06T23:52:49.409Z,15.08
2022-11-06T23:54:51.539Z,15.02
2022-11-06T23:56:53.708Z,15.09
2022-11-06T23:58:56.155Z,15.07
